Time,TemperatureF,DewpointF,PressureIn,WindDirection,WindDirectionDegrees,WindSpeedMPH,WindSpeedGustMPH,Humidity,HourlyPrecipIn,Conditions,Clouds,dailyrainin,SoftwareType,DateUTC
2013-09-18 00:10:00,73.0,45.9,29.60,WSW,242,22.0,23.0,38,0.00,,,0.00,Wunderground v.1.15,2013-09-18 07:10:00,
2013-09-18 00:20:00,73.1,45.3,29.60,SW,234,20.0,20.0,37,0.00,,,0.00,Wunderground v.1.15,2013-09-18 07:20:00,
2013-09-18 00:30:00,73.2,43.9,29.60,SW,235,22.0,23.0,35,0.00,,,0.00,Wunderground v.1.15,2013-09-18 07:30:00,
2013-09-18 00:40:00,73.0,44.5,29.59,SW,228,22.0,24.0,36,0.00,,,0.00,Wunderground v.1.15,2013-09-18 07:40:00,
2013-09-18 00:50:00,72.8,44.3,29.59,SW,233,20.0,20.0,36,0.00,,,0.00,Wunderground v.1.15,2013-09-18 07:50:00,
2013-09-18 01:00:00,72.9,43.6,29.59,SW,219,21.0,21.0,35,0.00,,,0.00,Wunderground v.1.15,2013-09-18 08:00:00,
2013-09-18 01:10:00,72.4,43.9,29.58,SW,229,20.0,20.0,36,0.00,,,0.00,Wunderground v.1.15,2013-09-18 08:10:00,
2013-09-18 01:19:00,71.9,44.2,29.59,WSW,258,19.0,19.0,37,0.00,,,0.00,Wunderground v.1.15,2013-09-18 08:19:00,
2013-09-18 01:30:00,71.3,43.7,29.60,WSW,254,12.0,19.0,37,0.00,,,0.00,Wunderground v.1.15,2013-09-18 08:30:00,
2013-09-18 01:40:00,71.4,43.8,29.61,SW,230,9.0,9.0,37,0.00,,,0.00,Wunderground v.1.15,2013-09-18 08:40:00,
2013-09-18 01:50:00,71.3,43.0,29.60,SW,224,10.0,19.0,36,0.00,,,0.00,Wunderground v.1.15,2013-09-18 08:50:00,
2013-09-18 02:00:00,71.1,42.8,29.59,WSW,254,16.0,23.0,36,0.00,,,0.00,Wunderground v.1.15,2013-09-18 09:00:00,
2013-09-18 02:10:00,71.3,42.2,29.59,WSW,249,19.0,19.0,35,0.00,,,0.00,Wunderground v.1.15,2013-09-18 09:10:00,
2013-09-18 02:20:00,71.0,41.2,29.59,West,266,17.0,19.0,34,0.00,,,0.00,Wunderground v.1.15,2013-09-18 09:20:00,
2013-09-18 02:30:00,71.4,40.8,29.58,WSW,250,18.0,18.0,33,0.00,,,0.00,Wunderground v.1.15,2013-09-18 09:30:00,
2013-09-18 02:40:00,70.8,41.0,29.58,WSW,245,14.0,14.0,34,0.00,,,0.00,Wunderground v.1.15,2013-09-18 09:40:00,
2013-09-18 02:50:00,70.5,40.8,29.58,SW,228,12.0,19.0,34,0.00,,,0.00,Wunderground v.1.15,2013-09-18 09:50:00,
2013-09-18 03:00:00,69.7,41.5,29.58,SW,217,14.0,19.0,36,0.00,,,0.00,Wunderground v.1.15,2013-09-18 10:00:00,
2013-09-18 03:10:00,69.3,41.2,29.58,SW,221,13.0,13.0,36,0.00,,,0.00,Wunderground v.1.15,2013-09-18 10:10:00,
2013-09-18 03:20:00,69.1,41.0,29.58,SSW,210,11.0,11.0,36,0.00,,,0.00,Wunderground v.1.15,2013-09-18 10:20:00,
2013-09-18 03:30:00,68.6,41.3,29.58,SSW,200,8.0,19.0,37,0.00,,,0.00,Wunderground v.1.15,2013-09-18 10:30:00,
2013-09-18 03:40:00,68.6,41.3,29.58,SSW,201,12.0,19.0,37,0.00,,,0.00,Wunderground v.1.15,2013-09-18 10:40:00,
2013-09-18 03:50:00,68.5,41.2,29.57,SSW,202,12.0,19.0,37,0.00,,,0.00,Wunderground v.1.15,2013-09-18 10:50:00,
2013-09-18 04:00:00,68.3,41.0,29.57,SSW,194,11.0,11.0,37,0.00,,,0.00,Wunderground v.1.15,2013-09-18 11:00:00,
2013-09-18 04:10:00,68.3,41.0,29.58,SW,232,7.0,7.0,37,0.00,,,0.00,Wunderground v.1.15,2013-09-18 11:10:00,
2013-09-18 04:20:00,68.1,40.8,29.58,WSW,246,8.0,8.0,37,0.00,,,0.00,Wunderground v.1.15,2013-09-18 11:20:00,
2013-09-18 04:29:00,67.3,40.8,29.59,WSW,247,5.0,5.0,38,0.00,,,0.00,Wunderground v.1.15,2013-09-18 11:29:00,
2013-09-18 04:40:00,67.1,40.6,29.58,WSW,246,3.0,19.0,38,0.00,,,0.00,Wunderground v.1.15,2013-09-18 11:40:00,
2013-09-18 04:50:00,66.9,40.5,29.59,WSW,246,6.0,6.0,38,0.00,,,0.00,Wunderground v.1.15,2013-09-18 11:50:00,
2013-09-18 04:59:00,66.7,40.3,29.59,WSW,246,5.0,5.0,38,0.00,,,0.00,Wunderground v.1.15,2013-09-18 11:59:00,
2013-09-18 05:10:00,65.3,40.3,29.59,WSW,247,2.0,19.0,40,0.00,,,0.00,Wunderground v.1.15,2013-09-18 12:10:00,
2013-09-18 05:20:00,66.5,40.8,29.60,SSW,202,7.0,19.0,39,0.00,,,0.00,Wunderground v.1.15,2013-09-18 12:20:00,
2013-09-18 05:30:00,66.5,40.8,29.60,South,187,10.0,10.0,39,0.00,,,0.00,Wunderground v.1.15,2013-09-18 12:30:00,
2013-09-18 05:40:00,65.2,40.3,29.61,South,184,4.0,4.0,40,0.00,,,0.00,Wunderground v.1.15,2013-09-18 12:40:00,
2013-09-18 05:50:00,65.4,40.4,29.61,South,176,4.0,19.0,40,0.00,,,0.00,Wunderground v.1.15,2013-09-18 12:50:00,
2013-09-18 06:00:00,65.4,40.4,29.62,South,178,4.0,19.0,40,0.00,,,0.00,Wunderground v.1.15,2013-09-18 13:00:00,
2013-09-18 06:10:00,65.6,40.6,29.63,South,180,5.0,5.0,40,0.00,,,0.00,Wunderground v.1.15,2013-09-18 13:10:00,
2013-09-18 06:20:00,65.4,40.4,29.63,South,188,5.0,5.0,40,0.00,,,0.00,Wunderground v.1.15,2013-09-18 13:20:00,
2013-09-18 06:40:00,64.0,40.4,29.64,South,189,1.0,19.0,42,0.00,,,0.00,Wunderground v.1.15,2013-09-18 13:40:00,
2013-09-18 06:50:00,64.2,40.6,29.64,South,180,5.0,19.0,42,0.00,,,0.00,Wunderground v.1.15,2013-09-18 13:50:00,
2013-09-18 07:00:00,64.9,40.6,29.64,South,185,7.0,19.0,41,0.00,,,0.00,Wunderground v.1.15,2013-09-18 14:00:00,
2013-09-18 07:20:00,64.6,41.0,29.66,South,188,1.0,1.0,42,0.00,,,0.00,Wunderground v.1.15,2013-09-18 14:20:00,
2013-09-18 07:30:00,66.0,41.0,29.66,South,188,0.0,19.0,40,0.00,,,0.00,Wunderground v.1.15,2013-09-18 14:30:00,
2013-09-18 07:40:00,66.6,41.5,29.66,South,188,1.0,1.0,40,0.00,,,0.00,Wunderground v.1.15,2013-09-18 14:40:00,
2013-09-18 07:50:00,67.9,41.3,29.67,South,188,0.0,19.0,38,0.00,,,0.00,Wunderground v.1.15,2013-09-18 14:50:00,
2013-09-18 08:00:00,67.9,42.0,29.66,South,189,1.0,1.0,39,0.00,,,0.00,Wunderground v.1.15,2013-09-18 15:00:00,
2013-09-18 08:10:00,67.6,42.4,29.66,South,189,1.0,19.0,40,0.00,,,0.00,Wunderground v.1.15,2013-09-18 15:10:00,
2013-09-18 08:20:00,68.2,42.3,29.66,South,189,1.0,1.0,39,0.00,,,0.00,Wunderground v.1.15,2013-09-18 15:20:00,
2013-09-18 08:30:00,69.0,42.3,29.66,South,189,0.0,19.0,38,0.00,,,0.00,Wunderground v.1.15,2013-09-18 15:30:00,
2013-09-18 08:40:00,70.1,42.6,29.66,SW,233,5.0,5.0,37,0.00,,,0.00,Wunderground v.1.15,2013-09-18 15:40:00,
2013-09-18 08:50:00,70.8,42.5,29.66,SSW,199,7.0,19.0,36,0.00,,,0.00,Wunderground v.1.15,2013-09-18 15:50:00,
2013-09-18 09:00:00,71.2,42.1,29.66,SW,221,7.0,7.0,35,0.00,,,0.00,Wunderground v.1.15,2013-09-18 16:00:00,
2013-09-18 09:10:00,71.7,41.8,29.67,WSW,252,7.0,7.0,34,0.00,,,0.00,Wunderground v.1.15,2013-09-18 16:10:00,
2013-09-18 09:20:00,72.4,41.7,29.67,WSW,240,6.0,6.0,33,0.00,,,0.00,Wunderground v.1.15,2013-09-18 16:20:00,
2013-09-18 09:30:00,73.1,42.3,29.67,WSW,248,4.0,19.0,33,0.00,,,0.00,Wunderground v.1.15,2013-09-18 16:30:00,
2013-09-18 09:40:00,73.8,42.1,29.67,WSW,248,4.0,4.0,32,0.00,,,0.00,Wunderground v.1.15,2013-09-18 16:40:00,
2013-09-18 09:50:00,74.5,42.7,29.67,WSW,248,4.0,19.0,32,0.00,,,0.00,Wunderground v.1.15,2013-09-18 16:50:00,
2013-09-18 10:00:00,75.1,42.4,29.66,SW,232,4.0,19.0,31,0.00,,,0.00,Wunderground v.1.15,2013-09-18 17:00:00,
2013-09-18 10:10:00,75.9,41.3,29.67,SW,234,4.0,4.0,29,0.00,,,0.00,Wunderground v.1.15,2013-09-18 17:10:00,
2013-09-18 10:20:00,76.6,42.0,29.67,SSW,208,4.0,19.0,29,0.00,,,0.00,Wunderground v.1.15,2013-09-18 17:20:00,
2013-09-18 10:30:00,77.0,41.4,29.66,WSW,256,5.0,5.0,28,0.00,,,0.00,Wunderground v.1.15,2013-09-18 17:30:00,
2013-09-18 10:40:00,78.0,40.3,29.66,WSW,242,5.0,19.0,26,0.00,,,0.00,Wunderground v.1.15,2013-09-18 17:40:00,
2013-09-18 10:50:00,78.3,40.6,29.66,West,264,5.0,5.0,26,0.00,,,0.00,Wunderground v.1.15,2013-09-18 17:50:00,
2013-09-18 11:00:00,79.0,40.2,29.66,SW,219,5.0,5.0,25,0.00,,,0.00,Wunderground v.1.15,2013-09-18 18:00:00,
2013-09-18 11:10:00,79.4,38.4,29.66,West,263,5.0,5.0,23,0.00,,,0.00,Wunderground v.1.15,2013-09-18 18:10:00,
2013-09-18 11:20:00,80.1,40.0,29.66,WSW,246,4.0,4.0,24,0.00,,,0.00,Wunderground v.1.15,2013-09-18 18:20:00,
2013-09-18 11:30:00,81.3,39.9,29.65,WSW,248,1.0,19.0,23,0.00,,,0.00,Wunderground v.1.15,2013-09-18 18:30:00,
2013-09-18 11:40:00,81.7,40.3,29.65,West,271,4.0,19.0,23,0.00,,,0.00,Wunderground v.1.15,2013-09-18 18:40:00,
2013-09-18 11:50:00,81.9,36.9,29.65,West,268,5.0,5.0,20,0.00,,,0.00,Wunderground v.1.15,2013-09-18 18:50:00,
2013-09-18 12:00:00,82.9,38.9,29.65,SW,214,3.0,19.0,21,0.00,,,0.00,Wunderground v.1.15,2013-09-18 19:00:00,
2013-09-18 12:10:00,83.8,38.4,29.65,SW,223,4.0,4.0,20,0.00,,,0.00,Wunderground v.1.15,2013-09-18 19:10:00,
2013-09-18 12:19:00,84.3,37.5,29.64,SW,218,4.0,19.0,19,0.00,,,0.00,Wunderground v.1.15,2013-09-18 19:19:00,
2013-09-18 12:30:00,84.5,37.7,29.64,West,265,4.0,19.0,19,0.00,,,0.00,Wunderground v.1.15,2013-09-18 19:30:00,
2013-09-18 12:40:00,84.4,37.6,29.64,West,273,7.0,7.0,19,0.00,,,0.00,Wunderground v.1.15,2013-09-18 19:40:00,
2013-09-18 12:50:00,85.0,38.1,29.64,NNW,346,4.0,4.0,19,0.00,,,0.00,Wunderground v.1.15,2013-09-18 19:50:00,
2013-09-18 13:10:00,85.9,37.5,29.63,SSW,206,4.0,4.0,18,0.00,,,0.00,Wunderground v.1.15,2013-09-18 20:10:00,
2013-09-18 13:20:00,87.1,37.0,29.63,West,279,2.0,2.0,17,0.00,,,0.00,Wunderground v.1.15,2013-09-18 20:20:00,
2013-09-18 13:30:00,86.9,36.8,29.62,North,355,3.0,3.0,17,0.00,,,0.00,Wunderground v.1.15,2013-09-18 20:30:00,
2013-09-18 13:40:00,87.3,37.1,29.62,NNW,344,4.0,4.0,17,0.00,,,0.00,Wunderground v.1.15,2013-09-18 20:40:00,
2013-09-18 13:50:00,87.5,37.3,29.61,West,272,4.0,4.0,17,0.00,,,0.00,Wunderground v.1.15,2013-09-18 20:50:00,
2013-09-18 14:00:00,87.6,37.4,29.61,WNW,300,6.0,19.0,17,0.00,,,0.00,Wunderground v.1.15,2013-09-18 21:00:00,
2013-09-18 14:10:00,88.1,37.8,29.61,NW,307,4.0,19.0,17,0.00,,,0.00,Wunderground v.1.15,2013-09-18 21:10:00,
2013-09-18 14:19:00,88.0,36.2,29.60,NW,306,6.0,6.0,16,0.00,,,0.00,Wunderground v.1.15,2013-09-18 21:19:00,
2013-09-18 14:30:00,88.6,36.7,29.60,NW,311,6.0,6.0,16,0.00,,,0.00,Wunderground v.1.15,2013-09-18 21:30:00,
2013-09-18 14:39:00,88.6,36.7,29.60,WNW,285,6.0,19.0,16,0.00,,,0.00,Wunderground v.1.15,2013-09-18 21:39:00,
2013-09-18 14:50:00,88.5,36.6,29.59,WSW,249,8.0,8.0,16,0.00,,,0.00,Wunderground v.1.15,2013-09-18 21:50:00,
2013-09-18 15:00:00,89.5,37.4,29.59,WSW,248,6.0,19.0,16,0.00,,,0.00,Wunderground v.1.15,2013-09-18 22:00:00,
2013-09-18 15:10:00,89.7,37.5,29.59,WSW,244,4.0,19.0,16,0.00,,,0.00,Wunderground v.1.15,2013-09-18 22:10:00,
2013-09-18 15:20:00,91.4,37.2,29.58,SW,227,1.0,1.0,15,0.00,,,0.00,Wunderground v.1.15,2013-09-18 22:20:00,
2013-09-18 15:30:00,91.4,37.2,29.58,SW,227,2.0,19.0,15,0.00,,,0.00,Wunderground v.1.15,2013-09-18 22:30:00,
2013-09-18 15:40:00,90.6,36.6,29.58,SE,133,6.0,6.0,15,0.00,,,0.00,Wunderground v.1.15,2013-09-18 22:40:00,
2013-09-18 15:50:00,90.1,36.2,29.57,WSW,250,6.0,6.0,15,0.00,,,0.00,Wunderground v.1.15,2013-09-18 22:50:00,
2013-09-18 16:00:00,90.2,36.3,29.58,West,269,7.0,7.0,15,0.00,,,0.00,Wunderground v.1.15,2013-09-18 23:00:00,
2013-09-18 16:10:00,89.9,36.1,29.57,West,269,6.0,19.0,15,0.00,,,0.00,Wunderground v.1.15,2013-09-18 23:10:00,
2013-09-18 16:20:00,90.0,36.1,29.57,North,360,5.0,5.0,15,0.00,,,0.00,Wunderground v.1.15,2013-09-18 23:20:00,
2013-09-18 16:40:00,90.4,36.5,29.57,WSW,246,5.0,5.0,15,0.00,,,0.00,Wunderground v.1.15,2013-09-18 23:40:00,
2013-09-18 16:50:00,90.7,36.7,29.56,West,264,5.0,19.0,15,0.00,,,0.00,Wunderground v.1.15,2013-09-18 23:50:00,
2013-09-18 17:00:00,90.9,36.8,29.56,WNW,289,4.0,4.0,15,0.00,,,0.00,Wunderground v.1.15,2013-09-19 00:00:00,
2013-09-18 17:10:00,91.0,36.9,29.56,SW,221,5.0,19.0,15,0.00,,,0.00,Wunderground v.1.15,2013-09-19 00:10:00,
2013-09-18 17:20:00,91.3,37.2,29.56,SW,215,4.0,19.0,15,0.00,,,0.00,Wunderground v.1.15,2013-09-19 00:20:00,
2013-09-18 17:30:00,90.6,36.6,29.56,WNW,292,7.0,7.0,15,0.00,,,0.00,Wunderground v.1.15,2013-09-19 00:30:00,
2013-09-18 17:40:00,90.3,36.4,29.56,WSW,249,6.0,19.0,15,0.00,,,0.00,Wunderground v.1.15,2013-09-19 00:40:00,
2013-09-18 17:50:00,90.2,36.3,29.57,West,274,7.0,7.0,15,0.00,,,0.00,Wunderground v.1.15,2013-09-19 00:50:00,
2013-09-18 18:00:00,90.1,36.2,29.57,WSW,243,5.0,5.0,15,0.00,,,0.00,Wunderground v.1.15,2013-09-19 01:00:00,
2013-09-18 18:10:00,90.1,36.2,29.57,West,271,4.0,19.0,15,0.00,,,0.00,Wunderground v.1.15,2013-09-19 01:10:00,
2013-09-18 18:20:00,89.6,35.8,29.58,WSW,237,7.0,19.0,15,0.00,,,0.00,Wunderground v.1.15,2013-09-19 01:20:00,
2013-09-18 18:30:00,87.7,42.9,29.57,WSW,255,12.0,19.0,21,0.00,,,0.00,Wunderground v.1.15,2013-09-19 01:30:00,
2013-09-18 18:40:00,86.7,43.3,29.57,West,271,13.0,19.0,22,0.00,,,0.00,Wunderground v.1.15,2013-09-19 01:40:00,
2013-09-18 18:50:00,86.0,43.9,29.58,West,260,11.0,11.0,23,0.00,,,0.00,Wunderground v.1.15,2013-09-19 01:50:00,
2013-09-18 19:00:00,85.1,43.1,29.58,WSW,246,10.0,19.0,23,0.00,,,0.00,Wunderground v.1.15,2013-09-19 02:00:00,
2013-09-18 19:10:00,84.0,43.3,29.58,West,265,11.0,19.0,24,0.00,,,0.00,Wunderground v.1.15,2013-09-19 02:10:00,
2013-09-18 19:20:00,83.0,43.5,29.59,SSW,195,8.0,19.0,25,0.00,,,0.00,Wunderground v.1.15,2013-09-19 02:20:00,
2013-09-18 19:30:00,81.7,44.5,29.59,SSW,200,13.0,19.0,27,0.00,,,0.00,Wunderground v.1.15,2013-09-19 02:30:00,
2013-09-18 19:40:00,81.0,44.8,29.60,SSW,207,14.0,19.0,28,0.00,,,0.00,Wunderground v.1.15,2013-09-19 02:40:00,
2013-09-18 19:50:00,80.3,44.2,29.60,SSW,212,14.0,14.0,28,0.00,,,0.00,Wunderground v.1.15,2013-09-19 02:50:00,
2013-09-18 20:20:00,78.4,44.4,29.62,SSW,192,14.0,14.0,30,0.00,,,0.00,Wunderground v.1.15,2013-09-19 03:20:00,
2013-09-18 20:30:00,77.8,44.7,29.62,South,181,13.0,13.0,31,0.00,,,0.00,Wunderground v.1.15,2013-09-19 03:30:00,
2013-09-18 20:40:00,77.1,44.1,29.62,SSE,168,9.0,9.0,31,0.00,,,0.00,Wunderground v.1.15,2013-09-19 03:40:00,
2013-09-18 20:50:00,76.9,44.0,29.63,South,172,10.0,19.0,31,0.00,,,0.00,Wunderground v.1.15,2013-09-19 03:50:00,
2013-09-18 21:00:00,76.7,43.8,29.63,South,180,11.0,11.0,31,0.00,,,0.00,Wunderground v.1.15,2013-09-19 04:00:00,
2013-09-18 21:10:00,76.4,44.4,29.64,South,180,11.0,11.0,32,0.00,,,0.00,Wunderground v.1.15,2013-09-19 04:10:00,
2013-09-18 21:20:00,76.0,44.8,29.64,South,188,11.0,11.0,33,0.00,,,0.00,Wunderground v.1.15,2013-09-19 04:20:00,
2013-09-18 21:30:00,75.8,44.6,29.64,South,182,10.0,19.0,33,0.00,,,0.00,Wunderground v.1.15,2013-09-19 04:30:00,
2013-09-18 21:40:00,75.4,44.3,29.65,South,172,9.0,9.0,33,0.00,,,0.00,Wunderground v.1.15,2013-09-19 04:40:00,
2013-09-18 21:50:00,75.1,44.8,29.64,South,180,10.0,19.0,34,0.00,,,0.00,Wunderground v.1.15,2013-09-19 04:50:00,
2013-09-18 22:00:00,74.8,44.5,29.65,South,180,11.0,19.0,34,0.00,,,0.00,Wunderground v.1.15,2013-09-19 05:00:00,
2013-09-18 22:10:00,74.6,44.4,29.65,South,177,9.0,19.0,34,0.00,,,0.00,Wunderground v.1.15,2013-09-19 05:10:00,
2013-09-18 22:20:00,74.4,44.2,29.65,SSE,168,7.0,19.0,34,0.00,,,0.00,Wunderground v.1.15,2013-09-19 05:20:00,
2013-09-18 22:30:00,73.9,44.5,29.65,SSE,163,5.0,19.0,35,0.00,,,0.00,Wunderground v.1.15,2013-09-19 05:30:00,
2013-09-18 22:39:00,73.6,44.2,29.66,South,170,4.0,19.0,35,0.00,,,0.00,Wunderground v.1.15,2013-09-19 05:39:00,
2013-09-18 22:50:00,73.1,43.8,29.66,South,170,5.0,19.0,35,0.00,,,0.00,Wunderground v.1.15,2013-09-19 05:50:00,
2013-09-18 23:00:00,73.5,43.4,29.66,South,170,5.0,19.0,34,0.00,,,0.00,Wunderground v.1.15,2013-09-19 06:00:00,
2013-09-18 23:10:00,74.1,43.1,29.66,South,169,5.0,5.0,33,0.00,,,0.00,Wunderground v.1.15,2013-09-19 06:10:00,
2013-09-18 23:20:00,74.5,42.7,29.66,South,169,5.0,19.0,32,0.00,,,0.00,Wunderground v.1.15,2013-09-19 06:20:00,
2013-09-18 23:30:00,73.7,42.0,29.66,South,169,6.0,6.0,32,0.00,,,0.00,Wunderground v.1.15,2013-09-19 06:30:00,
2013-09-18 23:40:00,73.3,42.4,29.66,South,169,4.0,19.0,33,0.00,,,0.00,Wunderground v.1.15,2013-09-19 06:40:00,
2013-09-18 23:50:00,72.2,42.3,29.67,South,170,3.0,19.0,34,0.00,,,0.00,Wunderground v.1.15,2013-09-19 06:50:00,